Terminal Aerodrome Forecast
Issued by NWS

Home | Current Version | Previous Version | Text Only | Print | Product List | Glossary On
Versions: 1 2 3 4 5 6 7 8 9 10 11 12 13 14
000
FTAK31 PAJN 310900 AAA
TAFAWG
TAF AMD
PAWG 310923Z 3109/0106 00000KT P6SM BCFG FEW002 SCT070
      TEMPO 3109/3113 1/2SM FG VV001
     FM311800 VRB04KT P6SM SCT150
      AMD LTD TO CLD VIS AND WIND TIL 311500=

USA.gov is the U.S. government's official web portal to all federal, state and local government web resources and services.